createdAt,value
2023-01-26T00:01:18.141Z,3.40
2023-01-26T00:03:45.384Z,3.30
2023-01-26T00:06:14.933Z,3.53
2023-01-26T00:08:43.709Z,3.52
2023-01-26T00:11:12.768Z,3.40
2023-01-26T00:13:39.575Z,3.53
2023-01-26T00:16:09.945Z,3.51
2023-01-26T00:18:37.999Z,3.60
2023-01-26T00:21:05.691Z,3.22
2023-01-26T00:23:33.334Z,2.99
2023-01-26T00:26:00.771Z,3.39
2023-01-26T00:28:28.063Z,3.57
2023-01-26T00:31:01.742Z,3.67
2023-01-26T00:33:28.968Z,3.57
2023-01-26T00:35:55.856Z,3.48
2023-01-26T00:38:22.247Z,3.51
2023-01-26T00:40:48.747Z,3.57
2023-01-26T00:43:15.452Z,3.56
2023-01-26T00:45:41.873Z,3.61
2023-01-26T00:48:08.373Z,3.68
2023-01-26T00:50:35.025Z,3.66
2023-01-26T00:53:01.584Z,3.69
2023-01-26T00:55:32.369Z,3.76
2023-01-26T00:58:03.753Z,3.77
2023-01-26T01:00:32.787Z,3.78
2023-01-26T01:03:00.002Z,3.77
2023-01-26T01:05:29.723Z,3.71
2023-01-26T01:07:56.347Z,3.74
2023-01-26T01:10:23.603Z,3.75
2023-01-26T01:12:50.376Z,3.76
2023-01-26T01:15:16.896Z,3.83
2023-01-26T01:17:43.592Z,3.82
2023-01-26T01:20:11.741Z,3.84
2023-01-26T01:22:38.588Z,3.82
2023-01-26T01:25:05.710Z,3.70
2023-01-26T01:27:32.197Z,3.64
2023-01-26T01:29:58.629Z,3.69
2023-01-26T01:32:25.213Z,3.54
2023-01-26T01:34:51.685Z,3.59
2023-01-26T01:37:18.363Z,3.57
2023-01-26T01:39:44.771Z,3.65
2023-01-26T01:42:11.282Z,3.46
2023-01-26T01:44:38.957Z,3.51
2023-01-26T01:47:12.088Z,3.56
2023-01-26T01:49:43.623Z,3.54
2023-01-26T01:52:17.588Z,3.57
2023-01-26T01:54:59.691Z,3.57
2023-01-26T01:57:45.237Z,3.57
2023-01-26T02:00:15.184Z,3.70
2023-01-26T02:02:44.272Z,3.73
2023-01-26T02:05:26.834Z,3.66
2023-01-26T02:07:54.278Z,3.62
2023-01-26T02:10:21.649Z,3.65
2023-01-26T02:12:51.759Z,3.62
2023-01-26T02:15:18.144Z,3.55
2023-01-26T02:17:45.428Z,3.63
2023-01-26T02:20:26.835Z,3.48
2023-01-26T02:23:09.748Z,3.48
2023-01-26T02:25:40.243Z,3.57
2023-01-26T02:28:06.761Z,3.48
2023-01-26T02:30:33.399Z,3.46
2023-01-26T02:32:59.937Z,3.54
2023-01-26T02:35:26.526Z,3.42
2023-01-26T02:37:53.022Z,3.43
2023-01-26T02:40:29.947Z,3.30
2023-01-26T02:42:56.586Z,3.44
2023-01-26T02:45:23.815Z,3.32
2023-01-26T02:47:50.314Z,3.36
2023-01-26T02:50:17.108Z,3.27
2023-01-26T02:52:43.749Z,3.25
2023-01-26T02:55:22.590Z,3.28
2023-01-26T02:57:51.045Z,3.25
2023-01-26T03:00:25.056Z,3.22
2023-01-26T03:02:53.429Z,3.20
2023-01-26T03:05:20.149Z,3.21
2023-01-26T03:07:46.658Z,3.25
2023-01-26T03:10:13.882Z,3.21
2023-01-26T03:12:40.354Z,3.14
2023-01-26T03:15:26.206Z,3.15
2023-01-26T03:18:12.831Z,3.24
2023-01-26T03:20:57.864Z,3.25
2023-01-26T03:23:42.631Z,3.20
2023-01-26T03:26:29.116Z,3.23
2023-01-26T03:28:55.583Z,3.31
2023-01-26T03:31:22.133Z,3.31
2023-01-26T03:33:48.655Z,3.33
2023-01-26T03:36:15.159Z,3.31
2023-01-26T03:38:41.729Z,3.30
2023-01-26T03:41:26.698Z,3.22
2023-01-26T03:44:11.806Z,3.28
2023-01-26T03:46:56.541Z,3.24
2023-01-26T03:49:41.518Z,3.24
2023-01-26T03:52:26.282Z,3.10
2023-01-26T03:55:11.043Z,3.13
2023-01-26T03:57:37.558Z,3.23
2023-01-26T04:00:04.557Z,3.20
2023-01-26T04:02:49.528Z,3.16
2023-01-26T04:05:34.382Z,3.35
2023-01-26T04:08:22.960Z,3.42
2023-01-26T04:10:51.545Z,3.33
2023-01-26T04:13:37.999Z,3.41
2023-01-26T04:16:23.784Z,3.23
2023-01-26T04:19:09.160Z,3.12
2023-01-26T04:21:36.395Z,3.12
2023-01-26T04:24:09.646Z,3.09
2023-01-26T04:26:37.121Z,3.28
2023-01-26T04:29:11.778Z,3.28
2023-01-26T04:31:38.925Z,3.25
2023-01-26T04:34:07.689Z,3.18
2023-01-26T04:36:34.497Z,3.10
2023-01-26T04:39:01.224Z,3.14
2023-01-26T04:41:30.011Z,3.06
2023-01-26T04:43:56.500Z,3.14
2023-01-26T04:46:22.938Z,3.07
2023-01-26T04:48:49.436Z,3.02
2023-01-26T04:51:18.121Z,2.99
2023-01-26T04:53:44.591Z,3.07
2023-01-26T04:56:20.944Z,3.04
2023-01-26T04:58:47.516Z,3.02
2023-01-26T05:01:13.971Z,3.03
2023-01-26T05:03:40.406Z,3.12
2023-01-26T05:06:06.911Z,3.08
2023-01-26T05:08:33.406Z,3.19
2023-01-26T05:10:59.873Z,3.19
2023-01-26T05:13:26.284Z,3.17
2023-01-26T05:15:52.637Z,3.16
2023-01-26T05:18:19.024Z,3.07
2023-01-26T05:20:45.604Z,3.09
2023-01-26T05:23:11.979Z,3.13
2023-01-26T05:25:38.576Z,3.12
2023-01-26T05:28:05.369Z,3.04
2023-01-26T05:30:31.860Z,3.01
2023-01-26T05:33:06.986Z,3.06
2023-01-26T05:35:34.365Z,3.08
2023-01-26T05:38:01.151Z,3.11
2023-01-26T05:40:27.637Z,3.20
2023-01-26T05:42:54.627Z,3.15
2023-01-26T05:45:21.534Z,3.14
2023-01-26T05:47:48.668Z,3.07
2023-01-26T05:50:16.040Z,3.08
2023-01-26T05:52:44.158Z,3.00
2023-01-26T05:55:11.002Z,2.96
2023-01-26T05:57:37.433Z,3.01
2023-01-26T06:00:09.056Z,3.01
2023-01-26T06:02:35.742Z,3.07
2023-01-26T06:05:02.249Z,3.06
2023-01-26T06:07:28.625Z,3.08
2023-01-26T06:09:55.124Z,3.17
2023-01-26T06:12:22.339Z,3.14
2023-01-26T06:14:48.906Z,3.12
2023-01-26T06:17:17.467Z,3.21
2023-01-26T06:19:44.379Z,3.21
2023-01-26T06:22:12.070Z,3.17
2023-01-26T06:24:38.547Z,3.18
2023-01-26T06:27:08.906Z,3.18
2023-01-26T06:29:35.486Z,3.20
2023-01-26T06:32:01.979Z,3.20
2023-01-26T06:34:28.615Z,3.23
2023-01-26T06:36:55.182Z,3.24
2023-01-26T06:39:21.750Z,3.27
2023-01-26T06:41:48.211Z,3.24
2023-01-26T06:44:14.646Z,3.19
2023-01-26T06:46:41.077Z,3.12
2023-01-26T06:49:07.671Z,3.12
2023-01-26T06:51:45.957Z,3.12
2023-01-26T06:54:13.493Z,2.93
2023-01-26T06:56:40.511Z,2.95
2023-01-26T06:59:07.153Z,2.90
2023-01-26T07:01:37.247Z,2.92
2023-01-26T07:04:03.874Z,2.97
2023-01-26T07:06:30.313Z,2.95
2023-01-26T07:08:56.925Z,2.90
2023-01-26T07:11:25.324Z,2.96
2023-01-26T07:13:51.952Z,2.97
2023-01-26T07:16:19.143Z,2.96
2023-01-26T07:18:45.670Z,2.81
2023-01-26T07:21:14.013Z,2.91
2023-01-26T07:23:40.415Z,2.96
2023-01-26T07:26:07.248Z,3.01
2023-01-26T07:28:39.977Z,3.08
2023-01-26T07:31:08.528Z,3.11
2023-01-26T07:33:35.330Z,3.06
2023-01-26T07:36:02.298Z,3.11
2023-01-26T07:38:29.117Z,3.14
2023-01-26T07:40:56.993Z,3.17
2023-01-26T07:43:24.175Z,3.15
2023-01-26T07:45:54.844Z,3.18
2023-01-26T07:48:23.419Z,3.12
2023-01-26T07:50:50.968Z,3.12
2023-01-26T07:53:22.879Z,3.11
2023-01-26T07:55:49.553Z,3.11
2023-01-26T07:58:16.077Z,3.12
2023-01-26T08:00:42.460Z,3.14
2023-01-26T08:03:09.088Z,3.15
2023-01-26T08:05:37.118Z,3.09
2023-01-26T08:08:04.450Z,3.01
2023-01-26T08:10:33.845Z,3.03
2023-01-26T08:13:00.774Z,3.03
2023-01-26T08:15:28.144Z,2.97
2023-01-26T08:17:54.926Z,2.95
2023-01-26T08:20:21.694Z,2.95
2023-01-26T08:22:48.105Z,3.00
2023-01-26T08:25:14.545Z,2.96
2023-01-26T08:27:40.994Z,2.90
2023-01-26T08:30:08.097Z,2.86
2023-01-26T08:32:34.585Z,2.84
2023-01-26T08:35:01.017Z,2.88
2023-01-26T08:37:27.467Z,2.94
2023-01-26T08:39:53.874Z,3.05
2023-01-26T08:42:22.488Z,3.07
2023-01-26T08:44:49.372Z,3.14
2023-01-26T08:47:15.762Z,3.15
2023-01-26T08:49:42.265Z,3.10
2023-01-26T08:52:08.836Z,3.15
2023-01-26T08:54:35.326Z,3.19
2023-01-26T08:57:01.775Z,3.22
2023-01-26T08:59:28.140Z,3.27
2023-01-26T09:01:55.996Z,3.26
2023-01-26T09:04:22.533Z,3.28
2023-01-26T09:06:49.037Z,3.27
2023-01-26T09:09:15.577Z,3.25
2023-01-26T09:11:42.012Z,3.32
2023-01-26T09:14:08.425Z,3.37
2023-01-26T09:16:34.912Z,3.27
2023-01-26T09:19:01.565Z,3.26
2023-01-26T09:21:28.020Z,3.28
2023-01-26T09:23:56.876Z,3.32
2023-01-26T09:26:23.382Z,3.39
2023-01-26T09:28:52.975Z,3.33
2023-01-26T09:31:19.714Z,3.31
2023-01-26T09:33:47.873Z,3.44
2023-01-26T09:36:14.678Z,3.42
2023-01-26T09:38:41.363Z,3.43
2023-01-26T09:41:18.580Z,3.44
2023-01-26T09:43:52.739Z,3.24
2023-01-26T09:46:23.971Z,3.44
2023-01-26T09:49:15.288Z,3.49
2023-01-26T09:51:48.487Z,3.55
2023-01-26T09:54:27.360Z,3.61
2023-01-26T09:56:56.928Z,3.62
2023-01-26T09:59:35.025Z,3.68
2023-01-26T10:02:32.305Z,3.73
2023-01-26T10:05:03.525Z,3.73
2023-01-26T10:07:30.050Z,3.77
2023-01-26T10:09:57.301Z,3.80
2023-01-26T10:12:34.995Z,3.80
2023-01-26T10:15:08.610Z,3.89
2023-01-26T10:17:39.131Z,3.96
2023-01-26T10:20:17.826Z,3.89
2023-01-26T10:22:47.694Z,3.87
2023-01-26T10:25:20.244Z,3.82
2023-01-26T10:27:46.788Z,3.72
2023-01-26T10:30:15.356Z,3.67
2023-01-26T10:32:44.253Z,3.44
2023-01-26T10:35:18.832Z,3.24
2023-01-26T10:37:45.876Z,3.30
2023-01-26T10:40:12.885Z,3.38
2023-01-26T10:42:40.437Z,3.47
2023-01-26T10:45:32.891Z,3.55
2023-01-26T10:48:20.428Z,3.57
2023-01-26T10:50:48.253Z,3.50
2023-01-26T10:53:23.568Z,3.33
2023-01-26T10:56:03.422Z,3.40
2023-01-26T10:58:52.656Z,3.44
2023-01-26T11:01:22.764Z,3.46
2023-01-26T11:04:05.809Z,3.08
2023-01-26T11:06:33.351Z,3.09
2023-01-26T11:09:20.947Z,3.31
2023-01-26T11:11:56.165Z,3.41
2023-01-26T11:14:22.595Z,3.44
2023-01-26T11:17:19.709Z,3.01
2023-01-26T11:19:52.255Z,3.03
2023-01-26T11:22:50.985Z,3.10
2023-01-26T11:25:30.241Z,3.19
2023-01-26T11:28:24.625Z,2.90
2023-01-26T11:31:01.479Z,2.83
2023-01-26T11:33:44.811Z,3.12
2023-01-26T11:36:30.310Z,3.30
2023-01-26T11:38:56.639Z,3.46
2023-01-26T11:41:39.767Z,3.48
2023-01-26T11:44:09.299Z,3.44
2023-01-26T11:47:05.976Z,3.46
2023-01-26T11:49:54.288Z,3.36
2023-01-26T11:52:40.779Z,3.53
2023-01-26T11:55:22.173Z,3.52
2023-01-26T11:57:57.704Z,3.52
2023-01-26T12:00:37.898Z,3.40
2023-01-26T12:03:06.181Z,3.16
2023-01-26T12:05:45.940Z,3.16
2023-01-26T12:08:21.586Z,3.17
2023-01-26T12:11:23.050Z,2.94
2023-01-26T12:14:26.581Z,2.65
2023-01-26T12:17:18.671Z,2.93
2023-01-26T12:19:52.760Z,3.02
2023-01-26T12:22:34.266Z,2.94
2023-01-26T12:25:23.420Z,3.09
2023-01-26T12:28:08.460Z,3.19
2023-01-26T12:30:53.104Z,3.20
2023-01-26T12:33:19.673Z,3.21
2023-01-26T12:36:01.357Z,3.09
2023-01-26T12:38:39.359Z,3.14
2023-01-26T12:41:24.508Z,3.03
2023-01-26T12:44:15.204Z,2.94
2023-01-26T12:46:47.087Z,2.92
2023-01-26T12:49:20.879Z,2.88
2023-01-26T12:51:53.298Z,2.96
2023-01-26T12:54:30.780Z,2.99
2023-01-26T12:57:02.637Z,3.09
2023-01-26T12:59:39.796Z,3.21
2023-01-26T13:02:13.892Z,3.28
2023-01-26T13:04:41.460Z,3.28
2023-01-26T13:07:28.092Z,3.29
2023-01-26T13:10:19.455Z,3.17
2023-01-26T13:13:01.012Z,3.05
2023-01-26T13:15:30.066Z,3.15
2023-01-26T13:18:00.440Z,3.07
2023-01-26T13:20:47.442Z,3.05
2023-01-26T13:23:41.021Z,3.06
2023-01-26T13:26:16.845Z,3.09
2023-01-26T13:28:44.913Z,3.07
2023-01-26T13:31:12.284Z,3.09
2023-01-26T13:33:41.043Z,3.08
2023-01-26T13:36:20.476Z,3.12
2023-01-26T13:39:03.509Z,3.10
2023-01-26T13:41:30.244Z,2.88
2023-01-26T13:44:10.214Z,2.97
2023-01-26T13:46:42.846Z,2.95
2023-01-26T13:49:24.868Z,3.00
2023-01-26T13:51:51.131Z,3.05
2023-01-26T13:54:18.544Z,2.95
2023-01-26T13:57:04.156Z,2.90
2023-01-26T13:59:33.218Z,2.84
2023-01-26T14:01:59.835Z,2.83
2023-01-26T14:04:31.343Z,2.72
2023-01-26T14:07:16.431Z,2.64
2023-01-26T14:09:49.841Z,2.66
2023-01-26T14:12:22.823Z,2.58
2023-01-26T14:14:55.599Z,2.57
2023-01-26T14:17:26.500Z,2.68
2023-01-26T14:19:53.033Z,2.68
2023-01-26T14:22:21.963Z,2.75
2023-01-26T14:24:50.906Z,2.90
2023-01-26T14:27:29.637Z,2.90
2023-01-26T14:29:56.986Z,2.87
2023-01-26T14:32:25.481Z,2.75
2023-01-26T14:35:14.862Z,2.78
2023-01-26T14:37:41.179Z,2.73
2023-01-26T14:40:24.775Z,2.75
2023-01-26T14:42:53.689Z,2.76
2023-01-26T14:45:30.483Z,2.73
2023-01-26T14:48:03.035Z,2.76
2023-01-26T14:50:33.191Z,2.70
2023-01-26T14:53:01.988Z,2.66
2023-01-26T14:55:31.733Z,2.59
2023-01-26T14:58:01.117Z,2.35
2023-01-26T15:00:31.459Z,2.37
2023-01-26T15:03:00.513Z,2.30
2023-01-26T15:05:36.417Z,2.27
2023-01-26T15:08:05.338Z,2.34
2023-01-26T15:10:41.788Z,2.44
2023-01-26T15:13:21.811Z,2.48
2023-01-26T15:16:02.533Z,2.47
2023-01-26T15:18:34.186Z,2.34
2023-01-26T15:21:13.298Z,2.44
2023-01-26T15:23:44.988Z,2.36
2023-01-26T15:26:26.721Z,2.44
2023-01-26T15:28:55.909Z,2.38
2023-01-26T15:31:29.129Z,2.29
2023-01-26T15:33:56.309Z,2.16
2023-01-26T15:36:24.394Z,2.26
2023-01-26T15:39:10.597Z,2.35
2023-01-26T15:41:36.970Z,2.32
2023-01-26T15:44:03.531Z,2.32
2023-01-26T15:46:29.986Z,2.28
2023-01-26T15:48:56.557Z,2.20
2023-01-26T15:51:23.004Z,2.24
2023-01-26T15:53:49.404Z,2.17
2023-01-26T15:56:16.300Z,2.17
2023-01-26T15:58:43.262Z,2.05
2023-01-26T16:01:20.776Z,2.07
2023-01-26T16:03:48.025Z,2.10
2023-01-26T16:06:29.491Z,2.16
2023-01-26T16:08:56.764Z,2.11
2023-01-26T16:11:28.939Z,2.19
2023-01-26T16:14:03.141Z,2.22
2023-01-26T16:16:31.612Z,2.20
2023-01-26T16:18:58.409Z,2.18
2023-01-26T16:21:33.084Z,2.07
2023-01-26T16:24:01.244Z,2.02
2023-01-26T16:26:28.185Z,2.01
2023-01-26T16:28:55.244Z,2.01
2023-01-26T16:31:28.985Z,2.03
2023-01-26T16:33:55.512Z,2.03
2023-01-26T16:36:22.426Z,2.05
2023-01-26T16:38:49.238Z,2.06
2023-01-26T16:41:31.064Z,2.05
2023-01-26T16:43:59.941Z,2.01
2023-01-26T16:46:27.840Z,1.97
2023-01-26T16:48:54.385Z,2.04
2023-01-26T16:51:25.307Z,2.01
2023-01-26T16:53:52.246Z,1.91
2023-01-26T16:56:19.393Z,1.99
2023-01-26T16:58:46.398Z,2.03
2023-01-26T17:01:29.122Z,2.01
2023-01-26T17:03:56.537Z,2.11
2023-01-26T17:06:23.994Z,1.95
2023-01-26T17:08:51.027Z,2.00
2023-01-26T17:11:23.587Z,1.99
2023-01-26T17:13:50.904Z,2.02
2023-01-26T17:16:20.384Z,1.96
2023-01-26T17:18:48.753Z,1.95
2023-01-26T17:21:18.588Z,1.96
2023-01-26T17:23:48.439Z,1.91
2023-01-26T17:26:16.974Z,1.91
2023-01-26T17:28:44.379Z,1.94
2023-01-26T17:31:13.236Z,2.04
2023-01-26T17:33:40.018Z,2.07
2023-01-26T17:36:07.545Z,2.10
2023-01-26T17:38:34.361Z,2.13
2023-01-26T17:41:01.009Z,2.26
2023-01-26T17:43:27.850Z,2.32
2023-01-26T17:46:03.419Z,2.26
2023-01-26T17:48:30.013Z,2.27
2023-01-26T17:50:56.540Z,2.23
2023-01-26T17:53:24.574Z,2.19
2023-01-26T17:55:52.294Z,2.15
2023-01-26T17:58:18.735Z,2.15
2023-01-26T18:00:45.550Z,2.16
2023-01-26T18:03:12.108Z,2.23
2023-01-26T18:05:38.613Z,2.27
2023-01-26T18:08:05.019Z,2.16
2023-01-26T18:10:31.613Z,2.11
2023-01-26T18:12:58.283Z,2.15
2023-01-26T18:15:24.801Z,2.23
2023-01-26T18:17:51.261Z,2.18
2023-01-26T18:20:17.814Z,2.30
2023-01-26T18:22:44.249Z,2.19
2023-01-26T18:25:11.277Z,2.24
2023-01-26T18:27:37.896Z,2.10
2023-01-26T18:30:05.023Z,2.07
2023-01-26T18:32:31.416Z,2.12
2023-01-26T18:34:57.807Z,2.08
2023-01-26T18:37:24.257Z,2.16
2023-01-26T18:39:50.666Z,2.10
2023-01-26T18:42:17.083Z,2.09
2023-01-26T18:44:43.551Z,2.10
2023-01-26T18:47:09.936Z,2.21
2023-01-26T18:49:36.409Z,2.17
2023-01-26T18:52:02.785Z,2.26
2023-01-26T18:54:29.488Z,2.25
2023-01-26T18:56:56.857Z,2.24
2023-01-26T18:59:23.366Z,2.28
2023-01-26T19:01:49.977Z,2.36
2023-01-26T19:04:18.253Z,2.30
2023-01-26T19:06:45.025Z,2.28
2023-01-26T19:09:11.734Z,2.18
2023-01-26T19:11:39.071Z,2.20
2023-01-26T19:14:06.881Z,2.27
2023-01-26T19:16:33.702Z,2.20
2023-01-26T19:19:00.338Z,2.07
2023-01-26T19:21:27.852Z,2.04
2023-01-26T19:23:56.491Z,2.09
2023-01-26T19:26:26.245Z,2.14
2023-01-26T19:28:54.181Z,2.18
2023-01-26T19:31:21.622Z,2.23
2023-01-26T19:34:02.966Z,2.23
2023-01-26T19:36:31.789Z,2.19
2023-01-26T19:38:58.561Z,2.21
2023-01-26T19:41:25.780Z,2.09
2023-01-26T19:43:52.283Z,2.13
2023-01-26T19:46:20.077Z,2.11
2023-01-26T19:48:46.498Z,1.90
2023-01-26T19:51:14.081Z,1.98
2023-01-26T19:53:43.166Z,2.01
2023-01-26T19:56:16.615Z,2.05
2023-01-26T19:58:48.667Z,1.98
2023-01-26T20:01:15.181Z,2.04
2023-01-26T20:03:41.915Z,1.95
2023-01-26T20:06:15.865Z,1.92
2023-01-26T20:08:42.647Z,1.93
2023-01-26T20:11:10.366Z,1.93
2023-01-26T20:13:37.263Z,1.95
2023-01-26T20:16:06.685Z,1.87
2023-01-26T20:18:33.246Z,1.83
2023-01-26T20:21:00.989Z,1.87
2023-01-26T20:23:27.629Z,1.80
2023-01-26T20:26:04.626Z,1.63
2023-01-26T20:28:33.467Z,1.66
2023-01-26T20:31:08.766Z,1.65
2023-01-26T20:33:35.665Z,1.64
2023-01-26T20:36:09.678Z,1.65
2023-01-26T20:38:36.623Z,1.60
2023-01-26T20:41:08.223Z,1.57
2023-01-26T20:43:39.218Z,1.60
2023-01-26T20:46:11.547Z,1.58
2023-01-26T20:48:38.827Z,1.59
2023-01-26T20:51:23.317Z,1.48
2023-01-26T20:53:50.822Z,1.46
2023-01-26T20:56:20.496Z,1.52
2023-01-26T20:58:47.004Z,1.60
2023-01-26T21:01:16.958Z,1.59
2023-01-26T21:03:44.266Z,1.67
2023-01-26T21:06:13.141Z,1.63
2023-01-26T21:08:40.304Z,1.73
2023-01-26T21:11:09.856Z,1.67
2023-01-26T21:13:36.948Z,1.58
2023-01-26T21:16:04.289Z,1.64
2023-01-26T21:18:30.777Z,1.53
2023-01-26T21:20:58.799Z,1.64
2023-01-26T21:23:25.467Z,1.68
2023-01-26T21:26:01.391Z,1.68
2023-01-26T21:28:28.140Z,1.71
2023-01-26T21:31:02.406Z,1.65
2023-01-26T21:33:30.351Z,1.63
2023-01-26T21:35:57.863Z,1.55
2023-01-26T21:38:24.815Z,1.54
2023-01-26T21:41:02.327Z,1.53
2023-01-26T21:43:29.880Z,1.62
2023-01-26T21:45:59.682Z,1.57
2023-01-26T21:48:31.661Z,1.61
2023-01-26T21:51:17.567Z,1.47
2023-01-26T21:53:44.436Z,1.50
2023-01-26T21:56:12.798Z,1.49
2023-01-26T21:58:54.086Z,1.30
2023-01-26T22:01:21.380Z,1.43
2023-01-26T22:03:48.195Z,1.46
2023-01-26T22:06:14.910Z,1.48
2023-01-26T22:08:41.355Z,1.47
2023-01-26T22:11:07.772Z,1.52
2023-01-26T22:13:36.234Z,1.53
2023-01-26T22:16:04.401Z,1.48
2023-01-26T22:18:31.270Z,1.53
2023-01-26T22:20:57.909Z,1.47
2023-01-26T22:23:24.491Z,1.51
2023-01-26T22:25:51.052Z,1.59
2023-01-26T22:28:17.595Z,1.56
2023-01-26T22:30:44.050Z,1.52
2023-01-26T22:33:10.538Z,1.56
2023-01-26T22:35:37.025Z,1.63
2023-01-26T22:38:03.455Z,1.55
2023-01-26T22:40:29.819Z,1.62
2023-01-26T22:42:56.269Z,1.61
2023-01-26T22:45:23.024Z,1.73
2023-01-26T22:47:49.735Z,1.71
2023-01-26T22:50:17.268Z,1.61
2023-01-26T22:52:43.752Z,1.57
2023-01-26T22:55:10.358Z,1.57
2023-01-26T22:57:36.794Z,1.54
2023-01-26T23:00:06.028Z,1.60
2023-01-26T23:02:32.556Z,1.60
2023-01-26T23:04:59.010Z,1.61
2023-01-26T23:07:25.394Z,1.65
2023-01-26T23:09:51.853Z,1.63
2023-01-26T23:12:18.280Z,1.70
2023-01-26T23:14:44.870Z,1.67
2023-01-26T23:17:11.349Z,1.64
2023-01-26T23:19:37.805Z,1.66
2023-01-26T23:22:04.557Z,1.64
2023-01-26T23:24:31.001Z,1.59
2023-01-26T23:26:57.615Z,1.66
2023-01-26T23:29:24.145Z,1.58
2023-01-26T23:31:50.698Z,1.61
2023-01-26T23:34:17.198Z,1.58
2023-01-26T23:36:43.641Z,1.63
2023-01-26T23:39:10.014Z,1.64
2023-01-26T23:41:36.424Z,1.57
2023-01-26T23:44:02.909Z,1.55
2023-01-26T23:46:29.739Z,1.52
2023-01-26T23:48:56.514Z,1.53
2023-01-26T23:51:22.967Z,1.60
2023-01-26T23:53:49.522Z,1.60
2023-01-26T23:56:17.529Z,1.61
2023-01-26T23:58:44.281Z,1.64
